aviador You're here:

SCIP Decoded Metar

EASTER ISLAND in CHILE
Report Time2018-01-16 07:00:00
UTC Time2018-01-16 07:21:26
Flight Rules vfr VFR
Wind120° at 03 kt
W.Decomp.*RWY 10: 3.0 kt HW 0.3 kt RCW
W.Rank120° ranks 4
Current wind is below 120° avg. (7.6)
Visibility9999 m
Phenomena:N/A
Clouds:Scattered 025 Hf
Expected CloudBase > 400 ft AGL from Temp-Dew spread
CeilingNone
Temp20°C (ISA +5)
Dew Point19°C (94% RH)
QNH1022 hPa
Density Alt853 ft
Elevation226 ft
Report Wrong Elevation
Raw Report
SCIP 160700Z 12003KT 9999 SCT025 20/19 Q1022 NOSIG=

Extra information for SCIP:More info

Metar Taf Metar & Taf Last 4 Metars F.Rules Stats Wind Profile Meteogram Temp Stats Airport Information Weather charts Add Link Nearby VenuesMetar ALERT Operation Metar Decoded Social comments